Ana Sayfa
METAR-TAF:

METAR-TAF

Havaalanları :

Bahreyn, Bahreyn

Enlem: 26-16N, Boylam: 050-39E, yükseklik: 2 m

Güncel hava durumu gözlemi

Rapor saat 06:30 UTC de 15 dakika önce yapıldı.
Rüzgar batı/kuzeybatıdan 19 kt
Sıcaklık 16°C
Nem 63%
Basınç 1023 hPa
Görüş mesafesi: 9000 m
4000 ft yükseklikte parçalı bulutlu

METAR: OBBI 210630Z 30019KT 9000 SCT040 16/09 Q1023 TEMPO 5000 DU

Saat: 09:45 (06:45 UTC)

Tahmin

Rapor saat 05:00 UTC de 1 saat ve 45 dakika önce yapıldı.
Ayın 21'si saat 06 UTC'den ayın 22'si saat 12 UTC'ye kadar geçerli Tahmin
Rüzgar kuzeybatıdan 15 kt ve 25 kt'a kadar ani rüzgarlar
Görüş mesafesi: 8000 m
3000 ft yükseklikte parçalı bulutlu
Olasılık 30% :
Geçici
ayın 21'si saat 09 UTC'den ayın 21'si saat 14 UTC'ye kadar
Görüş mesafesi: 3000 m
yaygın toz
Dönüşüyor
ayın 21'si saat 18 UTC'den ayın 21'si saat 20 UTC'ye kadar
Rüzgar kuzey/kuzeybatıdan 13 kt

TAF: OBBI 210500Z 2106/2212 31015G25KT 8000 SCT030 PROB30 TEMPO 2109/2114 3000 DU BECMG 2118/2120 33013KT

4.000'den fazla havaalanı için hava durumu gözlemleri ve tahminleri (METAR ve TAF raporları).

Kullanılabilir istasyonlar harita üzerinde sarı ve kırmızı noktalarla gösterilir.

İstasyonun adını görmek için fareyi noktanın üzerinde gezdirin.

Sonrasında hava gözlem ve tahminlerini görmek için tıklayın.

Haritayı değiştirmek için: yaklaştırmak için siyah artı işaretli yeşil düğmeye ve uzaklaştırmak için de eksi işaretli düğmeye hızla tıklayın; bitişik haritalar için yeşil okları kullanın.


METAR-TAF: